Time;durP1;ratioP1;P1;durP2;ratioP2;P2;SDS_P1;SDS_P2;PMS_P1;PMS_P2;Temp;Humidity;BMP_temperature;BMP_pressure;BME280_temperature;BME280_humidity;BME280_pressure;Samples;Min_cycle;Max_cycle;Signal;HPM_P1;HPM_P2
2021/12/04 00:01:11;;;;;;;39.05;17.87;;;;;;;-2.11;80.70;100269.84;4486134;31;20126;-68
2021/12/04 00:03:41;;;;;;;37.67;15.43;;;;;;;-2.14;80.71;100268.00;4486341;31;20088;-68
2021/12/04 00:06:44;;;;;;;47.28;18.77;;;;;;;-2.24;80.88;100260.75;4486262;31;20103;-68
2021/12/04 00:09:05;;;;;;;48.85;18.98;;;;;;;-2.42;81.69;100260.94;4484224;31;20105;-68
2021/12/04 00:11:34;;;;;;;46.83;18.48;;;;;;;-2.56;82.36;100257.81;4486138;31;20148;-68
2021/12/04 00:14:02;;;;;;;36.33;16.40;;;;;;;-2.75;83.12;100257.94;4486194;31;20475;-68
2021/12/04 00:16:29;;;;;;;41.08;16.15;;;;;;;-2.73;82.88;100258.88;4486121;31;20578;-68
2021/12/04 00:18:57;;;;;;;74.05;24.12;;;;;;;-2.85;83.99;100260.97;4486407;31;20170;-68
2021/12/04 00:21:24;;;;;;;134.45;37.30;;;;;;;-2.99;85.50;100263.00;4486088;31;20092;-68
2021/12/04 00:23:51;;;;;;;98.75;30.00;;;;;;;-2.97;85.53;100246.78;4486206;31;20179;-68
2021/12/04 00:26:19;;;;;;;80.25;23.98;;;;;;;-2.94;85.36;100246.87;4486197;31;20205;-68
2021/12/04 00:28:46;;;;;;;58.78;20.62;;;;;;;-2.91;85.05;100251.28;4486013;31;20432;-68
2021/12/04 00:31:13;;;;;;;50.38;19.10;;;;;;;-2.99;85.36;100255.25;4486066;31;20130;-68
2021/12/04 00:33:43;;;;;;;115.93;38.13;;;;;;;-3.05;86.04;100257.59;4486068;31;20468;-68
2021/12/04 00:36:27;;;;;;;81.93;26.58;;;;;;;-2.86;84.69;100244.63;4486215;31;20100;-68
2021/12/04 00:49:59;;;;;;;48.40;19.40;;;;;;;-2.84;84.18;100231.78;4486260;31;20391;-68
2021/12/04 00:52:26;;;;;;;38.35;17.75;;;;;;;-3.03;84.93;100230.19;4485994;31;20087;-68
2021/12/04 00:55:00;;;;;;;28.75;12.23;;;;;;;-3.10;85.14;100238.50;4485807;31;20455;-68
2021/12/04 00:57:28;;;;;;;23.45;9.55;;;;;;;-2.81;83.70;100239.66;4485877;31;20104;-68
2021/12/04 00:59:55;;;;;;;29.12;12.63;;;;;;;-2.62;82.51;100231.78;4485762;31;20453;-68
2021/12/04 01:02:22;;;;;;;33.78;15.00;;;;;;;-2.78;82.78;100237.19;4485943;31;20087;-68
2021/12/04 01:04:50;;;;;;;31.90;14.63;;;;;;;-3.08;83.91;100237.72;4485782;31;20088;-68
2021/12/04 01:07:17;;;;;;;34.88;15.57;;;;;;;-3.38;85.10;100245.09;4486028;31;20510;-68
2021/12/04 01:09:45;;;;;;;28.50;13.25;;;;;;;-3.21;85.65;100238.06;4486062;31;20092;-68
2021/12/04 01:12:13;;;;;;;29.30;14.05;;;;;;;-2.77;83.95;100226.91;4485741;31;20146;-68
2021/12/04 01:14:40;;;;;;;34.22;13.90;;;;;;;-3.21;84.82;100226.06;4485692;31;20100;-68
2021/12/04 01:17:07;;;;;;;37.95;14.27;;;;;;;-3.68;87.31;100237.81;4485800;31;20515;-68
2021/12/04 01:19:36;;;;;;;31.85;13.50;;;;;;;-3.59;87.24;100241.63;4485692;31;20152;-68
2021/12/04 01:22:05;;;;;;;29.15;12.32;;;;;;;-3.65;87.62;100242.22;4485715;31;20100;-68
2021/12/04 01:24:32;;;;;;;24.12;10.85;;;;;;;-3.43;86.67;100238.84;4485762;31;20461;-68
2021/12/04 01:27:00;;;;;;;22.62;8.75;;;;;;;-3.28;85.64;100233.47;4485770;31;20175;-69
2021/12/04 01:29:27;;;;;;;20.10;9.10;;;;;;;-3.06;84.27;100230.94;4485791;31;20088;-68
2021/12/04 01:31:54;;;;;;;18.37;8.45;;;;;;;-3.30;84.72;100233.41;4485587;31;20083;-68
2021/12/04 01:34:21;;;;;;;19.23;8.88;;;;;;;-3.38;85.14;100235.66;4485567;31;20461;-68
2021/12/04 01:36:49;;;;;;;14.45;7.53;;;;;;;-3.10;84.42;100229.06;4485773;31;20103;-68
2021/12/04 01:39:16;;;;;;;15.75;7.62;;;;;;;-3.59;86.51;100232.19;4485595;31;20167;-68
2021/12/04 01:41:43;;;;;;;28.15;7.95;;;;;;;-3.38;85.50;100222.78;4485773;31;20092;-68
2021/12/04 01:44:14;;;;;;;23.38;7.80;;;;;;;-3.61;85.54;100224.38;4485561;31;20096;-68
2021/12/04 01:46:42;;;;;;;15.90;7.18;;;;;;;-3.70;86.06;100225.72;4485515;31;20096;-68
2021/12/04 01:49:09;;;;;;;15.52;7.18;;;;;;;-3.68;85.79;100224.06;4485579;31;20096;-68
2021/12/04 01:51:37;;;;;;;24.58;7.82;;;;;;;-3.14;84.22;100224.59;4485412;31;20099;-68
2021/12/04 01:54:04;;;;;;;17.55;7.37;;;;;;;-2.93;83.14;100222.88;4485720;31;20127;-68
2021/12/04 01:56:35;;;;;;;14.57;7.12;;;;;;;-3.33;84.34;100222.97;4485415;31;20445;-68
2021/12/04 01:59:03;;;;;;;13.73;6.62;;;;;;;-3.68;85.80;100227.50;4485488;31;20452;-68
2021/12/04 02:01:32;;;;;;;13.18;6.65;;;;;;;-3.78;86.28;100220.25;4485301;31;20087;-68
2021/12/04 02:04:05;;;;;;;17.75;6.78;;;;;;;-3.77;85.77;100222.00;4485441;31;20095;-68
2021/12/04 02:06:32;;;;;;;19.15;7.68;;;;;;;-3.86;86.65;100212.16;4485276;31;20855;-68
2021/12/04 02:09:00;;;;;;;20.15;7.90;;;;;;;-4.07;88.02;100218.97;4484537;31;20153;-68
2021/12/04 02:11:27;;;;;;;14.90;7.65;;;;;;;-4.21;89.27;100214.91;4485171;31;20156;-68
2021/12/04 02:13:54;;;;;;;14.43;7.10;;;;;;;-3.96;87.34;100215.16;4485203;31;20184;-68
2021/12/04 02:16:22;;;;;;;12.13;6.15;;;;;;;-3.83;86.56;100214.00;4485285;31;20092;-68
2021/12/04 02:18:50;;;;;;;12.90;6.40;;;;;;;-3.69;85.70;100209.44;4485191;31;20088;-68
2021/12/04 02:21:17;;;;;;;17.83;6.65;;;;;;;-3.86;86.61;100199.28;4485273;31;20092;-68
2021/12/04 02:23:45;;;;;;;36.00;12.00;;;;;;;-3.91;86.80;100202.50;4485167;31;20091;-68
2021/12/04 02:26:13;;;;;;;77.70;22.75;;;;;;;-4.29;89.02;100203.41;4485014;31;20107;-68
2021/12/04 02:28:45;;;;;;;96.72;32.88;;;;;;;-4.13;88.50;100209.28;4484975;31;20084;-68
2021/12/04 02:31:17;;;;;;;204.10;59.35;;;;;;;-4.18;88.74;100199.59;4484918;31;20881;-68
2021/12/04 02:33:45;;;;;;;242.32;73.85;;;;;;;-4.10;88.18;100199.13;4484740;31;20761;-68
2021/12/04 02:36:12;;;;;;;210.18;61.37;;;;;;;-3.96;87.17;100206.56;4484855;31;20475;-68
2021/12/04 02:38:40;;;;;;;104.80;35.22;;;;;;;-4.13;87.89;100203.28;4485006;31;20508;-68
2021/12/04 02:41:09;;;;;;;66.78;22.77;;;;;;;-4.17;88.08;100201.34;4484985;31;20083;-68
2021/12/04 02:43:36;;;;;;;28.98;11.35;;;;;;;-3.52;85.61;100197.28;4484746;31;20134;-68
2021/12/04 02:46:04;;;;;;;20.70;10.00;;;;;;;-3.82;85.77;100194.28;4484655;31;20532;-68
2021/12/04 02:48:31;;;;;;;21.12;8.75;;;;;;;-4.01;86.39;100198.66;4484766;31;20080;-68
2021/12/04 02:50:59;;;;;;;25.58;10.40;;;;;;;-4.12;86.46;100187.00;4484716;31;20190;-68
2021/12/04 02:53:26;;;;;;;25.73;9.75;;;;;;;-4.11;86.41;100186.19;4484803;31;20161;-68
2021/12/04 02:55:54;;;;;;;28.62;10.52;;;;;;;-4.05;85.81;100171.03;4484670;31;20156;-68
2021/12/04 02:58:22;;;;;;;24.90;9.50;;;;;;;-3.89;85.12;100181.19;4484454;31;20089;-68
2021/12/04 03:00:51;;;;;;;17.77;7.93;;;;;;;-4.05;86.30;100178.75;4484443;31;20088;-68
2021/12/04 03:03:20;;;;;;;17.33;7.78;;;;;;;-4.13;86.86;100180.13;4484486;31;20130;-68
2021/12/04 03:05:49;;;;;;;13.30;6.55;;;;;;;-4.18;87.10;100186.75;4484665;31;20180;-68
2021/12/04 03:08:22;;;;;;;13.93;7.00;;;;;;;-4.10;86.80;100181.12;4484543;31;20071;-68
2021/12/04 03:10:51;;;;;;;11.88;5.50;;;;;;;-4.21;87.27;100179.75;4484328;31;20095;-68
2021/12/04 03:13:20;;;;;;;14.15;6.60;;;;;;;-4.18;87.69;100185.03;4484357;31;20161;-68
2021/12/04 03:15:56;;;;;;;16.27;7.53;;;;;;;-4.24;88.02;100181.31;4484279;31;20092;-68
2021/12/04 03:18:24;;;;;;;16.67;7.15;;;;;;;-4.17;87.24;100188.50;4484257;31;20148;-68
2021/12/04 03:20:54;;;;;;;15.50;7.05;;;;;;;-4.14;86.55;100188.63;4484895;31;20122;-68
2021/12/04 03:23:29;;;;;;;15.35;7.22;;;;;;;-3.73;85.28;100186.97;4486493;31;20104;-68
2021/12/04 03:26:00;;;;;;;16.75;7.15;;;;;;;-4.07;86.18;100177.78;4486615;31;20117;-68
2021/12/04 03:28:28;;;;;;;13.43;6.22;;;;;;;-4.23;87.76;100172.81;4486593;31;20076;-68
2021/12/04 03:31:09;;;;;;;14.52;6.87;;;;;;;-4.05;86.47;100172.72;4486441;31;20083;-68
2021/12/04 03:41:54;;;;;;;15.20;7.53;;;;;;;-3.82;84.76;100147.94;4486473;31;20080;-68
2021/12/04 03:44:22;;;;;;;20.85;8.65;;;;;;;-4.15;86.30;100140.56;4486493;31;20519;-68
2021/12/04 03:46:50;;;;;;;18.25;7.68;;;;;;;-4.24;86.68;100132.44;4486477;31;20092;-69
2021/12/04 03:49:17;;;;;;;16.75;8.05;;;;;;;-4.02;86.56;100124.84;4486493;31;20088;-68
2021/12/04 03:51:45;;;;;;;19.33;7.45;;;;;;;-3.84;84.87;100111.84;4486353;31;20118;-68
2021/12/04 03:54:12;;;;;;;14.95;8.35;;;;;;;-4.09;85.38;100115.09;4486706;31;20176;-68
2021/12/04 03:56:39;;;;;;;20.20;8.90;;;;;;;-4.34;87.11;100118.31;4486401;31;20519;-68
2021/12/04 03:59:08;;;;;;;19.37;8.93;;;;;;;-3.90;85.86;100120.19;4486607;31;20164;-68
2021/12/04 04:01:35;;;;;;;19.90;8.32;;;;;;;-4.02;85.31;100116.25;4486176;31;20096;-68
2021/12/04 04:04:03;;;;;;;16.75;9.13;;;;;;;-4.17;86.01;100112.22;4486282;31;20117;-68
2021/12/04 04:06:30;;;;;;;19.20;9.27;;;;;;;-4.50;88.29;100119.34;4486232;31;20171;-68
2021/12/04 04:08:57;;;;;;;22.67;9.60;;;;;;;-4.42;87.70;100110.25;4486198;31;20106;-68
2021/12/04 04:11:25;;;;;;;22.98;9.98;;;;;;;-4.43;87.94;100108.50;4486212;31;20143;-68
2021/12/04 04:13:52;;;;;;;22.87;10.20;;;;;;;-4.56;89.07;100106.19;4486161;31;20100;-68
2021/12/04 04:16:20;;;;;;;20.95;9.88;;;;;;;-4.51;88.94;100107.31;4486151;31;20096;-68
2021/12/04 04:18:48;;;;;;;22.35;9.00;;;;;;;-4.38;88.31;100107.03;4486206;31;20102;-68
2021/12/04 04:21:15;;;;;;;24.25;10.70;;;;;;;-4.06;86.25;100107.53;4486494;31;20095;-68
2021/12/04 04:23:42;;;;;;;22.05;9.75;;;;;;;-4.12;85.85;100102.09;4486152;31;20100;-68
2021/12/04 04:26:10;;;;;;;24.83;10.02;;;;;;;-4.16;86.04;100098.53;4486153;31;20206;-68
2021/12/04 04:28:37;;;;;;;27.15;10.73;;;;;;;-4.30;86.48;100106.47;4486244;31;20088;-68
2021/12/04 04:31:05;;;;;;;19.08;9.60;;;;;;;-4.49;87.66;100108.22;4485738;31;20088;-68
2021/12/04 04:33:37;;;;;;;27.27;10.98;;;;;;;-4.20;88.01;100116.34;4486034;31;20170;-68
2021/12/04 04:36:43;;;;;;;21.40;10.43;;;;;;;-4.03;87.64;100105.06;4486136;31;20528;-68
2021/12/04 05:14:38;;;;;;;29.23;12.00;;;;;;;-4.68;88.98;100110.81;4485829;31;20091;-68
2021/12/04 05:17:14;;;;;;;26.45;11.88;;;;;;;-4.71;89.30;100106.41;4485780;31;20155;-68
2021/12/04 05:19:53;;;;;;;24.30;11.35;;;;;;;-4.64;89.05;100105.00;4485834;31;20515;-68
2021/12/04 05:22:22;;;;;;;23.58;10.98;;;;;;;-4.54;88.00;100102.03;4485843;31;20116;-68
2021/12/04 05:24:49;;;;;;;29.02;12.60;;;;;;;-4.62;88.10;100096.56;4485793;31;20137;-68
2021/12/04 05:27:17;;;;;;;29.80;11.93;;;;;;;-4.56;87.67;100090.78;4485698;31;20538;-68
2021/12/04 05:29:44;;;;;;;23.10;10.80;;;;;;;-4.43;87.28;100087.06;4485790;31;20425;-68
2021/12/04 05:32:11;;;;;;;30.05;13.40;;;;;;;-4.45;86.96;100106.66;4485586;31;20111;-68
2021/12/04 05:34:39;;;;;;;30.83;13.23;;;;;;;-4.47;86.85;100101.47;4485685;31;20153;-68
2021/12/04 05:37:06;;;;;;;39.00;14.48;;;;;;;-4.51;87.16;100101.28;4485620;31;20214;-68
2021/12/04 05:39:34;;;;;;;39.35;15.63;;;;;;;-4.58;86.99;100105.28;4485824;31;20126;-68
2021/12/04 05:42:02;;;;;;;40.03;15.38;;;;;;;-4.97;89.05;100112.97;4485569;31;20076;-68
2021/12/04 05:44:31;;;;;;;33.88;15.25;;;;;;;-4.95;89.51;100113.00;4484556;31;20103;-68
2021/12/04 05:47:03;;;;;;;32.08;13.62;;;;;;;-4.84;89.08;100106.66;4485484;31;20157;-68
2021/12/04 05:52:22;;;;;;;47.38;17.95;;;;;;;-4.86;88.77;100098.91;4485715;31;20143;-68
2021/12/04 05:57:36;;;;;;;34.55;14.82;;;;;;;-4.81;88.94;100096.53;4485659;31;20110;-68
2021/12/04 06:00:08;;;;;;;28.35;13.10;;;;;;;-4.43;86.87;100102.47;4481739;31;107975;-68
2021/12/04 06:02:35;;;;;;;23.73;11.45;;;;;;;-4.76;88.67;100099.31;4485373;31;20171;-68
2021/12/04 06:05:03;;;;;;;26.10;11.98;;;;;;;-4.76;88.36;100089.91;4485258;31;20096;-68
2021/12/04 06:07:30;;;;;;;37.40;16.50;;;;;;;-4.33;86.22;100084.94;4485254;31;20118;-68
2021/12/04 06:09:58;;;;;;;36.75;15.85;;;;;;;-4.46;86.44;100085.22;4485258;31;20179;-68
2021/12/04 06:12:25;;;;;;;31.42;14.57;;;;;;;-4.68;87.43;100086.00;4485442;31;20471;-68
2021/12/04 06:14:52;;;;;;;38.30;19.08;;;;;;;-4.74;87.68;100089.97;4485472;31;20121;-68
2021/12/04 06:17:20;;;;;;;46.08;17.30;;;;;;;-4.69;87.66;100083.38;4485171;31;20526;-68
2021/12/04 06:22:42;;;;;;;32.53;15.82;;;;;;;-4.21;85.58;100076.84;4485394;31;20149;-68
2021/12/04 06:25:26;;;;;;;32.20;14.37;;;;;;;-4.20;85.37;100082.91;4485136;31;20093;-68
2021/12/04 06:27:55;;;;;;;40.17;15.88;;;;;;;-4.28;85.90;100079.09;4485235;31;20251;-68
2021/12/04 06:30:25;;;;;;;90.50;45.60;;;;;;;-4.72;88.12;100067.81;4484975;31;20267;-68
2021/12/04 06:32:54;;;;;;;80.40;36.17;;;;;;;-4.76;88.21;100074.50;4484885;31;20084;-68
2021/12/04 06:35:23;;;;;;;44.42;22.92;;;;;;;-4.72;87.85;100089.25;4484886;31;20114;-68
2021/12/04 06:37:51;;;;;;;36.88;15.85;;;;;;;-4.41;86.59;100078.59;4484893;31;20089;-68
2021/12/04 06:40:23;;;;;;;34.97;16.40;;;;;;;-4.27;85.73;100073.19;4485023;31;20108;-68
2021/12/04 06:42:51;;;;;;;66.62;25.30;;;;;;;-4.55;87.50;100078.81;4485072;31;20080;-68
2021/12/04 06:45:18;;;;;;;104.93;35.85;;;;;;;-4.62;87.97;100077.69;4484663;31;20088;-68
2021/12/04 06:47:54;;;;;;;142.60;44.00;;;;;;;-4.55;88.30;100078.81;4484591;31;20132;-68
2021/12/04 06:50:36;;;;;;;158.52;51.05;;;;;;;-4.37;87.69;100070.19;4484671;31;20108;-68
2021/12/04 06:53:21;;;;;;;128.70;43.03;;;;;;;-4.45;87.23;100069.00;4484589;31;20144;-68
2021/12/04 06:55:52;;;;;;;103.12;34.80;;;;;;;-4.26;86.21;100073.22;4486145;31;20080;-68
2021/12/04 06:58:21;;;;;;;72.93;26.50;;;;;;;-4.09;85.17;100074.81;4486774;31;20440;-68
2021/12/04 07:00:50;;;;;;;62.85;22.87;;;;;;;-4.01;84.81;100062.25;4486641;31;20591;-68
2021/12/04 07:03:18;;;;;;;53.47;21.23;;;;;;;-3.94;84.68;100072.00;4486685;31;20150;-68
2021/12/04 07:05:46;;;;;;;53.95;19.10;;;;;;;-3.67;84.19;100067.09;4486654;31;20092;-68
2021/12/04 07:08:14;;;;;;;43.87;18.27;;;;;;;-3.68;84.30;100052.44;4486665;31;20527;-68
2021/12/04 07:10:42;;;;;;;34.75;15.45;;;;;;;-3.95;86.80;100056.50;4486649;31;20095;-68
2021/12/04 07:13:10;;;;;;;37.70;15.27;;;;;;;-3.89;86.64;100044.75;4486629;31;20762;-68
2021/12/04 07:15:37;;;;;;;39.20;14.93;;;;;;;-3.66;85.34;100049.94;4486614;31;20171;-68
2021/12/04 07:18:04;;;;;;;34.10;15.07;;;;;;;-3.54;84.89;100052.09;4486590;31;20204;-68
2021/12/04 07:20:32;;;;;;;34.17;15.40;;;;;;;-3.53;85.51;100047.03;4486573;31;20091;-68
2021/12/04 07:22:59;;;;;;;41.40;17.27;;;;;;;-3.43;85.85;100049.16;4486604;31;20159;-68
2021/12/04 07:25:27;;;;;;;35.80;15.35;;;;;;;-3.35;86.29;100049.44;4486532;31;20360;-68
2021/12/04 07:27:54;;;;;;;40.30;17.33;;;;;;;-2.88;84.65;100042.59;4486524;31;20119;-68
2021/12/04 07:30:23;;;;;;;41.60;18.62;;;;;;;-2.93;84.96;100036.41;4486559;31;20115;-68
2021/12/04 07:32:51;;;;;;;61.63;21.12;;;;;;;-2.99;85.90;100033.59;4471769;31;20084;-68
2021/12/04 07:35:19;;;;;;;66.95;23.25;;;;;;;-2.87;85.77;100030.56;4486515;31;20088;-68
2021/12/04 07:37:46;;;;;;;64.65;25.52;;;;;;;-2.67;85.09;100016.69;4486333;31;20096;-68
2021/12/04 07:40:19;;;;;;;77.12;25.83;;;;;;;-2.56;84.88;100005.03;4486508;31;20095;-68
2021/12/04 07:42:46;;;;;;;73.82;25.75;;;;;;;-2.44;84.57;100015.81;4486582;31;20080;-68
2021/12/04 07:45:13;;;;;;;58.70;24.55;;;;;;;-2.46;85.84;100025.16;4486590;31;20092;-68
2021/12/04 07:47:40;;;;;;;57.50;22.98;;;;;;;-2.18;84.15;100015.78;4486386;31;20092;-68
2021/12/04 07:50:09;;;;;;;52.10;21.50;;;;;;;-2.42;86.22;100013.25;4486394;31;20146;-68
2021/12/04 07:52:38;;;;;;;48.92;21.10;;;;;;;-2.54;87.70;100006.00;4486262;31;20464;-68
2021/12/04 07:55:08;;;;;;;45.75;20.12;;;;;;;-2.50;87.37;100002.69;4486351;31;20425;-68
2021/12/04 07:57:37;;;;;;;52.83;21.00;;;;;;;-2.36;86.93;100015.19;4486304;31;20088;-68
2021/12/04 08:00:07;;;;;;;46.67;20.60;;;;;;;-2.48;87.56;100005.31;4486033;31;20187;-68
2021/12/04 08:02:34;;;;;;;49.92;19.42;;;;;;;-2.53;88.29;100012.00;4486233;31;20080;-68
2021/12/04 08:05:02;;;;;;;51.45;23.85;;;;;;;-2.23;86.82;100017.31;4486567;31;20429;-68
2021/12/04 08:07:29;;;;;;;52.97;21.87;;;;;;;-1.83;84.95;100013.47;4485711;31;20096;-68
2021/12/04 08:09:56;;;;;;;52.60;25.15;;;;;;;-2.04;85.94;100013.66;4486262;31;20180;-68
2021/12/04 08:12:24;;;;;;;79.55;28.87;;;;;;;-2.06;86.10;100011.00;4486244;31;20568;-68
2021/12/04 08:14:53;;;;;;;63.65;25.17;;;;;;;-2.26;87.65;100017.22;4486153;31;20131;-68
2021/12/04 08:17:21;;;;;;;56.08;23.38;;;;;;;-2.21;87.78;100015.69;4486134;31;20495;-68
2021/12/04 08:19:48;;;;;;;55.30;25.75;;;;;;;-1.81;85.48;100022.12;4486308;31;20156;-68
2021/12/04 08:22:15;;;;;;;62.55;24.27;;;;;;;-1.79;86.19;100020.50;4486206;31;20100;-68
2021/12/04 08:24:45;;;;;;;63.50;24.87;;;;;;;-1.73;86.07;100018.12;4486045;31;20092;-68
2021/12/04 08:27:13;;;;;;;63.35;24.63;;;;;;;-1.81;87.44;100016.97;4486338;31;20495;-68
2021/12/04 08:29:40;;;;;;;63.87;24.87;;;;;;;-1.67;87.04;100022.56;4485988;31;20130;-69
2021/12/04 08:32:08;;;;;;;60.22;25.15;;;;;;;-1.34;87.25;100017.53;4485865;31;20079;-68
2021/12/04 08:34:36;;;;;;;61.85;26.42;;;;;;;-1.03;84.55;100012.44;4485968;31;20498;-71
2021/12/04 08:37:04;;;;;;;58.22;25.08;;;;;;;-0.77;83.87;100017.50;4485741;31;20134;-69
2021/12/04 08:39:32;;;;;;;57.42;25.85;;;;;;;-0.68;84.92;100015.12;4486037;31;20103;-68
2021/12/04 08:41:59;;;;;;;59.63;26.23;;;;;;;-0.59;84.65;100015.41;4485888;31;20088;-69
2021/12/04 08:44:26;;;;;;;57.83;25.80;;;;;;;-0.40;84.16;100015.88;4485941;31;20148;-69
2021/12/04 08:46:54;;;;;;;62.30;26.17;;;;;;;-0.08;82.39;99994.28;4486034;31;20474;-69
2021/12/04 08:49:21;;;;;;;58.85;27.37;;;;;;;0.31;81.09;99993.47;4486109;31;20170;-68
2021/12/04 08:51:48;;;;;;;57.55;26.52;;;;;;;0.60;80.37;99993.25;4485861;31;20159;-69
2021/12/04 08:54:16;;;;;;;59.65;25.92;;;;;;;0.70;80.14;99998.66;4485814;31;20436;-69
2021/12/04 08:56:43;;;;;;;66.28;26.33;;;;;;;0.73;80.13;100002.16;4485888;31;20451;-68
2021/12/04 08:59:10;;;;;;;67.60;28.50;;;;;;;1.03;79.46;99997.62;4486003;31;20171;-69
2021/12/04 09:01:40;;;;;;;62.33;25.85;;;;;;;1.20;79.20;99997.94;4485863;31;20088;-68
2021/12/04 09:04:12;;;;;;;61.08;26.05;;;;;;;1.36;77.73;99992.22;4485770;31;20481;-69
2021/12/04 09:06:39;;;;;;;57.33;27.52;;;;;;;1.50;77.38;99994.19;4485835;31;20450;-69
2021/12/04 09:09:08;;;;;;;60.22;26.12;;;;;;;1.64;77.26;99982.34;4485883;31;20140;-69
2021/12/04 09:11:53;;;;;;;57.72;26.75;;;;;;;1.78;76.73;99985.19;4485742;31;20185;-69
2021/12/04 09:14:24;;;;;;;70.10;25.98;;;;;;;1.97;75.17;99984.63;4485895;31;20558;-69
2021/12/04 09:16:53;;;;;;;47.67;23.40;;;;;;;2.10;75.72;99981.38;4485747;31;20167;-69
2021/12/04 09:19:23;;;;;;;49.42;24.05;;;;;;;2.38;75.12;99980.06;4484532;31;20542;-69
2021/12/04 09:21:52;;;;;;;51.55;22.48;;;;;;;2.62;74.50;99974.34;4485778;31;20080;-69
2021/12/04 09:24:25;;;;;;;43.28;21.35;;;;;;;3.08;73.19;99963.66;4485943;31;20575;-69
2021/12/04 10:35:06;;;;;;;30.80;16.10;;;;;;;6.05;60.54;99867.72;4487045;31;20559;-69
2021/12/04 10:37:37;;;;;;;33.28;16.58;;;;;;;5.68;61.04;99860.72;4486806;31;20099;-69
2021/12/04 10:40:08;;;;;;;28.38;16.17;;;;;;;5.70;61.43;99856.37;4486874;31;20148;-69
2021/12/04 10:42:47;;;;;;;31.83;16.40;;;;;;;5.81;60.53;99837.22;4487120;31;20093;-69
2021/12/04 10:45:14;;;;;;;30.05;15.25;;;;;;;6.04;60.32;99827.59;4486881;31;20449;-69
2021/12/04 10:48:04;;;;;;;26.83;15.45;;;;;;;6.37;59.65;99834.50;4486858;31;20536;-69
2021/12/04 10:53:14;;;;;;;36.53;19.48;;;;;;;7.43;55.97;99815.53;4486789;31;20537;-69
2021/12/04 11:05:37;;;;;;;26.40;15.48;;;;;;;8.48;49.06;99800.47;4436524;32;20101;-69
2021/12/04 11:42:48;;;;;;;16.83;10.10;;;;;;;14.57;33.65;99735.75;4485728;31;20071;-70
2021/12/04 11:45:22;;;;;;;16.23;10.05;;;;;;;15.08;34.58;99731.94;4486507;31;20075;-70
2021/12/04 11:47:55;;;;;;;19.90;10.60;;;;;;;15.00;32.44;99723.44;4486466;31;20130;-70
2021/12/04 11:50:30;;;;;;;17.60;10.48;;;;;;;15.97;32.31;99723.75;4486400;31;20155;-70
2021/12/04 11:53:19;;;;;;;13.95;10.50;;;;;;;16.31;30.89;99719.56;4486508;31;20110;-70
2021/12/04 11:55:49;;;;;;;22.75;13.93;;;;;;;16.25;29.97;99714.50;4486436;31;20148;-70
2021/12/04 11:58:33;;;;;;;26.45;11.73;;;;;;;16.22;30.19;99704.91;4486144;31;20092;-70
2021/12/04 12:01:05;;;;;;;19.77;12.18;;;;;;;14.37;32.50;99699.38;4486226;31;20180;-70
2021/12/04 12:03:35;;;;;;;20.52;12.13;;;;;;;14.46;32.29;99695.53;4486255;31;20471;-70
2021/12/04 12:06:11;;;;;;;20.73;12.60;;;;;;;13.25;34.25;99708.72;4486205;31;20516;-70
2021/12/04 12:08:42;;;;;;;23.10;13.38;;;;;;;11.96;35.69;99698.59;4486327;31;20115;-70
2021/12/04 12:11:12;;;;;;;27.77;16.23;;;;;;;10.64;40.05;99704.59;4486396;31;20120;-70
2021/12/04 12:13:46;;;;;;;30.20;14.30;;;;;;;10.33;40.75;99695.66;4486148;31;20089;-70
2021/12/04 12:16:19;;;;;;;45.88;21.83;;;;;;;9.61;41.91;99704.94;4486281;31;20103;-70
2021/12/04 12:18:49;;;;;;;35.67;18.40;;;;;;;9.76;42.09;99694.16;4486229;31;20096;-70
2021/12/04 12:21:22;;;;;;;30.60;16.75;;;;;;;9.97;43.26;99692.88;4486326;31;20107;-70
2021/12/04 12:33:05;;;;;;;20.70;12.43;;;;;;;11.41;38.75;99677.19;4486078;31;20093;-69
2021/12/04 12:38:30;;;;;;;25.02;12.57;;;;;;;12.52;37.97;99681.97;4486028;31;20500;-70
2021/12/04 12:41:08;;;;;;;28.35;14.00;;;;;;;13.49;36.56;99683.16;4485991;31;20088;-70
2021/12/04 12:43:41;;;;;;;26.70;15.82;;;;;;;14.96;33.84;99677.62;4485932;31;20498;-70
2021/12/04 12:46:10;;;;;;;24.85;13.48;;;;;;;16.37;30.54;99670.56;4486060;31;20084;-70
2021/12/04 12:48:55;;;;;;;25.65;15.30;;;;;;;17.12;31.31;99661.62;4485891;31;20092;-70
2021/12/04 12:51:36;;;;;;;26.12;12.98;;;;;;;16.52;29.21;99643.25;4485772;31;20557;-70
2021/12/04 12:54:06;;;;;;;21.83;11.75;;;;;;;15.60;29.95;99650.13;4485610;31;20130;-70
2021/12/04 12:56:37;;;;;;;17.05;11.98;;;;;;;15.35;28.58;99646.81;4486271;31;20154;-70
2021/12/04 12:59:09;;;;;;;20.15;12.95;;;;;;;15.39;31.48;99648.41;4486067;31;20072;-70
2021/12/04 13:13:39;;;;;;;16.10;10.05;;;;;;;15.58;27.94;99640.47;4473453;31;20518;-70
2021/12/04 13:16:31;;;;;;;16.73;9.63;;;;;;;14.50;29.63;99638.84;4485779;31;20163;-70
2021/12/04 13:19:06;;;;;;;16.45;9.45;;;;;;;14.31;30.79;99642.19;4485718;31;20421;-70
2021/12/04 13:21:36;;;;;;;18.90;10.45;;;;;;;14.34;31.62;99646.47;4485897;31;20067;-70
2021/12/04 13:24:05;;;;;;;14.10;10.07;;;;;;;15.23;30.47;99641.09;4485798;31;20460;-70
2021/12/04 13:26:38;;;;;;;11.63;8.32;;;;;;;14.59;29.41;99641.09;4485726;31;20607;-70
2021/12/04 13:29:07;;;;;;;21.52;9.18;;;;;;;14.66;31.15;99639.94;4485860;31;20510;-70
2021/12/04 13:31:38;;;;;;;12.88;8.20;;;;;;;14.59;30.65;99635.81;4485782;31;20104;-70
2021/12/04 13:34:13;;;;;;;12.35;8.82;;;;;;;14.08;32.18;99636.91;4485612;31;20087;-70
2021/12/04 13:36:45;;;;;;;14.00;9.38;;;;;;;13.91;32.06;99637.53;4485724;31;20091;-70
2021/12/04 13:39:16;;;;;;;11.30;7.50;;;;;;;13.61;32.79;99628.94;4485724;31;20156;-70
2021/12/04 13:41:45;;;;;;;12.00;7.40;;;;;;;14.05;32.99;99634.38;4485710;31;20103;-70
2021/12/04 13:44:16;;;;;;;13.55;7.97;;;;;;;13.88;32.50;99619.09;4485528;31;20488;-70
2021/12/04 13:46:45;;;;;;;13.82;8.35;;;;;;;14.14;30.33;99625.22;4485728;31;20152;-70
2021/12/04 13:49:19;;;;;;;19.80;11.02;;;;;;;13.28;30.79;99613.34;4485536;31;20752;-70
2021/12/04 13:51:55;;;;;;;13.10;8.20;;;;;;;12.53;32.71;99615.84;4485560;31;20088;-70
2021/12/04 13:54:26;;;;;;;10.98;6.95;;;;;;;12.95;32.00;99612.69;4485508;31;20092;-70
2021/12/04 13:56:54;;;;;;;14.57;7.37;;;;;;;13.53;32.41;99605.41;4485783;31;20087;-70
2021/12/04 13:59:25;;;;;;;14.20;9.15;;;;;;;13.51;30.50;99603.72;4485462;31;20091;-70
2021/12/04 14:01:53;;;;;;;18.87;10.15;;;;;;;13.05;31.35;99611.47;4485507;31;20084;-70
2021/12/04 14:04:21;;;;;;;14.55;8.82;;;;;;;12.94;32.85;99589.84;4484460;31;20119;-70
2021/12/04 14:06:58;;;;;;;15.77;9.30;;;;;;;12.96;33.85;99573.91;4485358;31;20122;-70
2021/12/04 14:09:37;;;;;;;16.58;9.88;;;;;;;12.60;34.13;99566.31;4485538;31;20091;-70
2021/12/04 14:12:06;;;;;;;15.98;9.65;;;;;;;11.55;36.15;99555.44;4485290;31;20092;-70
2021/12/04 14:14:35;;;;;;;13.45;9.07;;;;;;;10.89;37.13;99543.25;4485112;31;20157;-70
2021/12/04 14:17:12;;;;;;;17.45;9.10;;;;;;;9.74;39.12;99545.97;4485202;31;20130;-70
2021/12/04 14:19:41;;;;;;;15.48;9.27;;;;;;;8.35;40.77;99546.84;4485345;31;20414;-70
2021/12/04 14:22:12;;;;;;;17.65;9.00;;;;;;;7.85;43.51;99541.50;4485049;31;20463;-69
2021/12/04 14:24:58;;;;;;;14.13;8.77;;;;;;;7.38;44.75;99547.34;4485124;31;20092;-69
2021/12/04 14:27:35;;;;;;;18.35;8.70;;;;;;;6.97;46.43;99540.84;4485232;31;20159;-69
2021/12/04 14:30:19;;;;;;;22.10;10.27;;;;;;;6.28;47.90;99545.84;4485416;31;20140;-69
2021/12/04 14:32:53;;;;;;;22.50;10.05;;;;;;;5.92;48.66;99551.34;4485044;31;20572;-69
2021/12/04 14:35:26;;;;;;;21.27;10.32;;;;;;;5.79;49.78;99548.78;4484854;31;20100;-69
2021/12/04 14:37:56;;;;;;;19.95;9.80;;;;;;;5.49;50.20;99551.56;4484889;31;20179;-69
2021/12/04 14:40:34;;;;;;;21.20;9.88;;;;;;;5.12;51.28;99550.81;4484972;31;20084;-69
2021/12/04 14:43:04;;;;;;;28.95;13.62;;;;;;;4.95;51.97;99560.47;4484990;31;20123;-69
2021/12/04 14:45:35;;;;;;;35.45;17.58;;;;;;;4.77;52.28;99566.56;4484814;31;20163;-69
2021/12/04 14:48:09;;;;;;;39.90;19.30;;;;;;;4.18;54.32;99557.91;4484801;31;20118;-69
2021/12/04 14:50:40;;;;;;;38.95;17.35;;;;;;;3.96;55.65;99551.81;4484790;31;20088;-69